sensor_id;sensor_type;location;lat;lon;timestamp;P1;durP1;ratioP1;P2;durP2;ratioP2
17947;SDS011;9099;47.958;11.366;2023-03-16T00:00:13;2.83;;;1.97;;
17947;SDS011;9099;47.958;11.366;2023-03-16T00:02:42;2.43;;;1.83;;
17947;SDS011;9099;47.958;11.366;2023-03-16T00:05:09;2.27;;;2.10;;
17947;SDS011;9099;47.958;11.366;2023-03-16T00:07:37;4.07;;;2.83;;
17947;SDS011;9099;47.958;11.366;2023-03-16T00:10:06;3.30;;;2.40;;
17947;SDS011;9099;47.958;11.366;2023-03-16T00:12:33;2.90;;;2.50;;
17947;SDS011;9099;47.958;11.366;2023-03-16T00:15:00;3.03;;;2.60;;
17947;SDS011;9099;47.958;11.366;2023-03-16T00:17:28;4.40;;;2.80;;
17947;SDS011;9099;47.958;11.366;2023-03-16T00:19:57;2.37;;;2.17;;
17947;SDS011;9099;47.958;11.366;2023-03-16T00:22:24;3.93;;;2.60;;
17947;SDS011;9099;47.958;11.366;2023-03-16T00:24:52;3.07;;;2.60;;
17947;SDS011;9099;47.958;11.366;2023-03-16T00:27:20;2.30;;;2.10;;
17947;SDS011;9099;47.958;11.366;2023-03-16T00:29:48;2.63;;;2.42;;
17947;SDS011;9099;47.958;11.366;2023-03-16T00:32:20;2.47;;;2.20;;
17947;SDS011;9099;47.958;11.366;2023-03-16T00:34:48;3.47;;;2.53;;
17947;SDS011;9099;47.958;11.366;2023-03-16T00:37:17;2.97;;;2.63;;
17947;SDS011;9099;47.958;11.366;2023-03-16T00:39:45;3.92;;;3.10;;
17947;SDS011;9099;47.958;11.366;2023-03-16T00:42:13;2.65;;;2.45;;
17947;SDS011;9099;47.958;11.366;2023-03-16T00:44:41;3.00;;;2.80;;
17947;SDS011;9099;47.958;11.366;2023-03-16T00:47:08;2.90;;;2.67;;
17947;SDS011;9099;47.958;11.366;2023-03-16T00:49:38;3.87;;;3.47;;
17947;SDS011;9099;47.958;11.366;2023-03-16T00:52:07;3.27;;;2.80;;
17947;SDS011;9099;47.958;11.366;2023-03-16T00:54:40;3.67;;;2.50;;
17947;SDS011;9099;47.958;11.366;2023-03-16T00:57:08;3.70;;;2.67;;
17947;SDS011;9099;47.958;11.366;2023-03-16T00:59:36;3.67;;;2.43;;
17947;SDS011;9099;47.958;11.366;2023-03-16T01:02:04;3.27;;;2.97;;
17947;SDS011;9099;47.958;11.366;2023-03-16T01:04:32;2.70;;;2.50;;
17947;SDS011;9099;47.958;11.366;2023-03-16T01:07:00;3.43;;;2.73;;
17947;SDS011;9099;47.958;11.366;2023-03-16T01:09:27;3.33;;;2.40;;
17947;SDS011;9099;47.958;11.366;2023-03-16T01:11:55;2.60;;;2.40;;
17947;SDS011;9099;47.958;11.366;2023-03-16T01:14:22;2.90;;;2.70;;
17947;SDS011;9099;47.958;11.366;2023-03-16T01:16:49;2.77;;;2.57;;
17947;SDS011;9099;47.958;11.366;2023-03-16T01:19:16;4.00;;;2.30;;
17947;SDS011;9099;47.958;11.366;2023-03-16T01:21:42;2.73;;;2.53;;
17947;SDS011;9099;47.958;11.366;2023-03-16T01:24:09;4.03;;;3.27;;
17947;SDS011;9099;47.958;11.366;2023-03-16T01:26:36;2.67;;;2.27;;
17947;SDS011;9099;47.958;11.366;2023-03-16T01:29:04;3.42;;;3.13;;
17947;SDS011;9099;47.958;11.366;2023-03-16T01:31:31;3.47;;;3.13;;
17947;SDS011;9099;47.958;11.366;2023-03-16T01:33:58;3.00;;;2.80;;
17947;SDS011;9099;47.958;11.366;2023-03-16T01:36:28;4.10;;;3.47;;
17947;SDS011;9099;47.958;11.366;2023-03-16T01:38:55;4.30;;;3.00;;
17947;SDS011;9099;47.958;11.366;2023-03-16T01:41:22;3.47;;;2.93;;
17947;SDS011;9099;47.958;11.366;2023-03-16T01:43:49;3.40;;;2.70;;
17947;SDS011;9099;47.958;11.366;2023-03-16T01:46:20;2.90;;;2.60;;
17947;SDS011;9099;47.958;11.366;2023-03-16T01:48:51;2.90;;;2.70;;
17947;SDS011;9099;47.958;11.366;2023-03-16T01:51:27;2.80;;;2.58;;
17947;SDS011;9099;47.958;11.366;2023-03-16T01:53:57;3.10;;;2.70;;
17947;SDS011;9099;47.958;11.366;2023-03-16T01:56:28;3.67;;;2.77;;
17947;SDS011;9099;47.958;11.366;2023-03-16T01:58:58;3.43;;;3.13;;
17947;SDS011;9099;47.958;11.366;2023-03-16T02:01:29;3.63;;;3.10;;
17947;SDS011;9099;47.958;11.366;2023-03-16T02:03:56;2.93;;;2.73;;
17947;SDS011;9099;47.958;11.366;2023-03-16T02:06:32;3.40;;;3.10;;
17947;SDS011;9099;47.958;11.366;2023-03-16T02:09:00;4.10;;;3.27;;
17947;SDS011;9099;47.958;11.366;2023-03-16T02:11:29;3.93;;;3.30;;
17947;SDS011;9099;47.958;11.366;2023-03-16T02:13:57;3.67;;;3.37;;
17947;SDS011;9099;47.958;11.366;2023-03-16T02:16:31;3.70;;;3.10;;
17947;SDS011;9099;47.958;11.366;2023-03-16T02:18:57;4.23;;;3.60;;
17947;SDS011;9099;47.958;11.366;2023-03-16T02:21:26;3.90;;;3.60;;
17947;SDS011;9099;47.958;11.366;2023-03-16T02:23:58;4.53;;;3.10;;
17947;SDS011;9099;47.958;11.366;2023-03-16T02:26:28;3.70;;;3.13;;
17947;SDS011;9099;47.958;11.366;2023-03-16T02:29:05;4.47;;;3.70;;
17947;SDS011;9099;47.958;11.366;2023-03-16T02:31:40;3.53;;;3.23;;
17947;SDS011;9099;47.958;11.366;2023-03-16T02:34:07;5.13;;;3.50;;
17947;SDS011;9099;47.958;11.366;2023-03-16T02:36:35;4.83;;;4.10;;
17947;SDS011;9099;47.958;11.366;2023-03-16T02:39:02;4.60;;;4.18;;
17947;SDS011;9099;47.958;11.366;2023-03-16T02:41:30;5.17;;;4.20;;
17947;SDS011;9099;47.958;11.366;2023-03-16T02:43:59;4.43;;;3.87;;
17947;SDS011;9099;47.958;11.366;2023-03-16T02:46:28;5.43;;;3.70;;
17947;SDS011;9099;47.958;11.366;2023-03-16T02:49:02;4.13;;;3.83;;
17947;SDS011;9099;47.958;11.366;2023-03-16T02:51:32;4.33;;;3.80;;
17947;SDS011;9099;47.958;11.366;2023-03-16T02:53:59;3.60;;;3.30;;
17947;SDS011;9099;47.958;11.366;2023-03-16T02:56:26;5.53;;;4.80;;
17947;SDS011;9099;47.958;11.366;2023-03-16T02:58:53;7.33;;;6.20;;
17947;SDS011;9099;47.958;11.366;2023-03-16T03:01:21;5.70;;;5.10;;
17947;SDS011;9099;47.958;11.366;2023-03-16T03:03:48;4.93;;;4.33;;
17947;SDS011;9099;47.958;11.366;2023-03-16T03:06:16;4.97;;;4.23;;
17947;SDS011;9099;47.958;11.366;2023-03-16T03:08:43;4.10;;;3.70;;
17947;SDS011;9099;47.958;11.366;2023-03-16T03:11:10;4.57;;;3.80;;
17947;SDS011;9099;47.958;11.366;2023-03-16T03:13:37;3.97;;;3.67;;
17947;SDS011;9099;47.958;11.366;2023-03-16T03:16:04;3.50;;;3.20;;
17947;SDS011;9099;47.958;11.366;2023-03-16T03:18:31;5.13;;;4.07;;
17947;SDS011;9099;47.958;11.366;2023-03-16T03:20:58;5.27;;;4.37;;
17947;SDS011;9099;47.958;11.366;2023-03-16T03:23:26;4.87;;;4.33;;
17947;SDS011;9099;47.958;11.366;2023-03-16T03:25:55;4.97;;;3.97;;
17947;SDS011;9099;47.958;11.366;2023-03-16T03:28:22;4.57;;;3.87;;
17947;SDS011;9099;47.958;11.366;2023-03-16T03:30:49;3.40;;;3.10;;
17947;SDS011;9099;47.958;11.366;2023-03-16T03:33:16;3.73;;;3.43;;
17947;SDS011;9099;47.958;11.366;2023-03-16T03:35:43;6.07;;;3.93;;
17947;SDS011;9099;47.958;11.366;2023-03-16T03:38:10;4.57;;;3.67;;
17947;SDS011;9099;47.958;11.366;2023-03-16T03:40:38;3.67;;;3.37;;
17947;SDS011;9099;47.958;11.366;2023-03-16T03:43:05;3.60;;;3.30;;
17947;SDS011;9099;47.958;11.366;2023-03-16T03:45:31;3.80;;;3.50;;
17947;SDS011;9099;47.958;11.366;2023-03-16T03:47:58;4.47;;;4.07;;
17947;SDS011;9099;47.958;11.366;2023-03-16T03:50:25;4.10;;;3.70;;
17947;SDS011;9099;47.958;11.366;2023-03-16T03:52:52;5.40;;;4.37;;
17947;SDS011;9099;47.958;11.366;2023-03-16T03:55:19;4.20;;;3.80;;
17947;SDS011;9099;47.958;11.366;2023-03-16T03:57:47;3.63;;;3.33;;
17947;SDS011;9099;47.958;11.366;2023-03-16T04:00:14;3.53;;;3.07;;
17947;SDS011;9099;47.958;11.366;2023-03-16T04:02:45;4.80;;;3.97;;
17947;SDS011;9099;47.958;11.366;2023-03-16T04:05:12;3.47;;;3.10;;
17947;SDS011;9099;47.958;11.366;2023-03-16T04:07:38;3.97;;;3.63;;
17947;SDS011;9099;47.958;11.366;2023-03-16T04:10:06;4.70;;;4.30;;
17947;SDS011;9099;47.958;11.366;2023-03-16T04:12:33;5.60;;;3.80;;
17947;SDS011;9099;47.958;11.366;2023-03-16T04:15:02;3.53;;;3.23;;
17947;SDS011;9099;47.958;11.366;2023-03-16T04:17:29;4.20;;;3.80;;
17947;SDS011;9099;47.958;11.366;2023-03-16T04:19:58;4.47;;;3.67;;
17947;SDS011;9099;47.958;11.366;2023-03-16T04:22:26;3.67;;;3.37;;
17947;SDS011;9099;47.958;11.366;2023-03-16T04:24:54;4.23;;;3.90;;
17947;SDS011;9099;47.958;11.366;2023-03-16T04:27:21;4.87;;;4.47;;
17947;SDS011;9099;47.958;11.366;2023-03-16T04:29:48;4.20;;;3.80;;
17947;SDS011;9099;47.958;11.366;2023-03-16T04:32:16;4.33;;;3.63;;
17947;SDS011;9099;47.958;11.366;2023-03-16T04:34:43;4.20;;;3.50;;
17947;SDS011;9099;47.958;11.366;2023-03-16T04:37:11;3.57;;;3.23;;
17947;SDS011;9099;47.958;11.366;2023-03-16T04:39:38;3.53;;;3.23;;
17947;SDS011;9099;47.958;11.366;2023-03-16T04:42:06;3.90;;;3.57;;
17947;SDS011;9099;47.958;11.366;2023-03-16T04:44:32;4.17;;;3.87;;
17947;SDS011;9099;47.958;11.366;2023-03-16T04:47:08;4.07;;;3.53;;
17947;SDS011;9099;47.958;11.366;2023-03-16T04:49:36;4.93;;;4.43;;
17947;SDS011;9099;47.958;11.366;2023-03-16T04:52:04;4.63;;;4.23;;
17947;SDS011;9099;47.958;11.366;2023-03-16T04:54:31;3.97;;;3.67;;
17947;SDS011;9099;47.958;11.366;2023-03-16T04:56:58;4.50;;;4.10;;
17947;SDS011;9099;47.958;11.366;2023-03-16T04:59:27;4.17;;;3.80;;
17947;SDS011;9099;47.958;11.366;2023-03-16T05:01:54;3.60;;;3.30;;
17947;SDS011;9099;47.958;11.366;2023-03-16T05:04:21;3.33;;;3.03;;
17947;SDS011;9099;47.958;11.366;2023-03-16T05:06:50;4.10;;;3.80;;
17947;SDS011;9099;47.958;11.366;2023-03-16T05:09:16;4.63;;;4.13;;
17947;SDS011;9099;47.958;11.366;2023-03-16T05:11:44;4.17;;;3.60;;
17947;SDS011;9099;47.958;11.366;2023-03-16T05:14:11;4.23;;;3.80;;
17947;SDS011;9099;47.958;11.366;2023-03-16T05:16:38;3.83;;;3.53;;
17947;SDS011;9099;47.958;11.366;2023-03-16T05:19:06;4.47;;;4.07;;
17947;SDS011;9099;47.958;11.366;2023-03-16T05:21:32;4.73;;;4.23;;
17947;SDS011;9099;47.958;11.366;2023-03-16T05:24:03;5.83;;;4.50;;
17947;SDS011;9099;47.958;11.366;2023-03-16T05:26:30;5.00;;;4.60;;
17947;SDS011;9099;47.958;11.366;2023-03-16T05:28:57;4.67;;;4.23;;
17947;SDS011;9099;47.958;11.366;2023-03-16T05:31:24;3.97;;;3.57;;
17947;SDS011;9099;47.958;11.366;2023-03-16T05:33:51;4.47;;;4.07;;
17947;SDS011;9099;47.958;11.366;2023-03-16T05:36:18;4.47;;;4.07;;
17947;SDS011;9099;47.958;11.366;2023-03-16T05:38:45;5.20;;;4.37;;
17947;SDS011;9099;47.958;11.366;2023-03-16T05:41:14;5.23;;;4.67;;
17947;SDS011;9099;47.958;11.366;2023-03-16T05:43:42;5.20;;;4.70;;
17947;SDS011;9099;47.958;11.366;2023-03-16T05:46:09;5.03;;;4.50;;
17947;SDS011;9099;47.958;11.366;2023-03-16T05:48:36;5.33;;;4.67;;
17947;SDS011;9099;47.958;11.366;2023-03-16T05:51:03;5.57;;;4.93;;
17947;SDS011;9099;47.958;11.366;2023-03-16T05:53:30;5.57;;;4.57;;
17947;SDS011;9099;47.958;11.366;2023-03-16T05:55:57;4.57;;;4.17;;
17947;SDS011;9099;47.958;11.366;2023-03-16T05:58:26;5.03;;;4.60;;
17947;SDS011;9099;47.958;11.366;2023-03-16T06:00:53;5.70;;;4.53;;
17947;SDS011;9099;47.958;11.366;2023-03-16T06:03:20;4.90;;;4.50;;
17947;SDS011;9099;47.958;11.366;2023-03-16T06:05:47;4.80;;;4.40;;
17947;SDS011;9099;47.958;11.366;2023-03-16T06:08:14;6.00;;;5.30;;
17947;SDS011;9099;47.958;11.366;2023-03-16T06:10:41;4.90;;;4.50;;
17947;SDS011;9099;47.958;11.366;2023-03-16T06:13:08;4.20;;;3.90;;
17947;SDS011;9099;47.958;11.366;2023-03-16T06:15:36;4.30;;;4.00;;
17947;SDS011;9099;47.958;11.366;2023-03-16T06:18:03;4.40;;;3.93;;
17947;SDS011;9099;47.958;11.366;2023-03-16T06:20:30;5.55;;;3.58;;
17947;SDS011;9099;47.958;11.366;2023-03-16T06:22:57;4.60;;;4.20;;
17947;SDS011;9099;47.958;11.366;2023-03-16T06:25:24;4.55;;;4.15;;
17947;SDS011;9099;47.958;11.366;2023-03-16T06:27:51;4.15;;;3.85;;
17947;SDS011;9099;47.958;11.366;2023-03-16T06:30:18;3.90;;;3.60;;
17947;SDS011;9099;47.958;11.366;2023-03-16T06:32:47;4.13;;;3.83;;
17947;SDS011;9099;47.958;11.366;2023-03-16T06:35:14;4.30;;;4.00;;
17947;SDS011;9099;47.958;11.366;2023-03-16T06:37:41;4.20;;;3.83;;
17947;SDS011;9099;47.958;11.366;2023-03-16T06:40:08;3.75;;;3.55;;
17947;SDS011;9099;47.958;11.366;2023-03-16T06:42:36;4.15;;;3.85;;
17947;SDS011;9099;47.958;11.366;2023-03-16T06:45:03;4.40;;;4.10;;
17947;SDS011;9099;47.958;11.366;2023-03-16T06:47:31;3.72;;;3.42;;
17947;SDS011;9099;47.958;11.366;2023-03-16T06:49:59;4.32;;;4.03;;
17947;SDS011;9099;47.958;11.366;2023-03-16T06:52:25;4.20;;;3.90;;
17947;SDS011;9099;47.958;11.366;2023-03-16T06:54:52;3.75;;;3.45;;
17947;SDS011;9099;47.958;11.366;2023-03-16T06:57:19;4.10;;;3.80;;
17947;SDS011;9099;47.958;11.366;2023-03-16T06:59:46;4.03;;;3.63;;
17947;SDS011;9099;47.958;11.366;2023-03-16T07:02:13;4.57;;;4.20;;
17947;SDS011;9099;47.958;11.366;2023-03-16T07:04:41;4.00;;;3.60;;
17947;SDS011;9099;47.958;11.366;2023-03-16T07:07:09;3.65;;;3.40;;
17947;SDS011;9099;47.958;11.366;2023-03-16T07:09:37;4.57;;;3.42;;
17947;SDS011;9099;47.958;11.366;2023-03-16T07:12:04;4.10;;;3.80;;
17947;SDS011;9099;47.958;11.366;2023-03-16T07:14:31;3.67;;;3.47;;
17947;SDS011;9099;47.958;11.366;2023-03-16T07:16:58;4.07;;;3.75;;
17947;SDS011;9099;47.958;11.366;2023-03-16T07:19:25;3.75;;;3.50;;
17947;SDS011;9099;47.958;11.366;2023-03-16T07:21:52;3.42;;;3.20;;
17947;SDS011;9099;47.958;11.366;2023-03-16T07:24:20;3.53;;;3.22;;
17947;SDS011;9099;47.958;11.366;2023-03-16T07:26:47;4.00;;;3.70;;
17947;SDS011;9099;47.958;11.366;2023-03-16T07:29:14;3.95;;;3.58;;
17947;SDS011;9099;47.958;11.366;2023-03-16T07:31:41;3.30;;;3.10;;
17947;SDS011;9099;47.958;11.366;2023-03-16T07:34:08;3.00;;;2.80;;
17947;SDS011;9099;47.958;11.366;2023-03-16T07:36:35;4.57;;;3.33;;
17947;SDS011;9099;47.958;11.366;2023-03-16T07:39:02;3.70;;;3.40;;
17947;SDS011;9099;47.958;11.366;2023-03-16T07:41:31;3.45;;;3.25;;
17947;SDS011;9099;47.958;11.366;2023-03-16T07:43:58;3.80;;;3.50;;
17947;SDS011;9099;47.958;11.366;2023-03-16T07:46:25;3.28;;;3.08;;
17947;SDS011;9099;47.958;11.366;2023-03-16T07:48:52;4.47;;;3.38;;
17947;SDS011;9099;47.958;11.366;2023-03-16T07:51:18;4.25;;;3.53;;
17947;SDS011;9099;47.958;11.366;2023-03-16T07:53:45;3.50;;;3.30;;
17947;SDS011;9099;47.958;11.366;2023-03-16T07:56:12;3.33;;;3.03;;
17947;SDS011;9099;47.958;11.366;2023-03-16T07:58:40;3.78;;;3.55;;
17947;SDS011;9099;47.958;11.366;2023-03-16T08:01:07;3.25;;;3.05;;
17947;SDS011;9099;47.958;11.366;2023-03-16T08:03:35;4.00;;;3.70;;
17947;SDS011;9099;47.958;11.366;2023-03-16T08:06:01;5.68;;;3.58;;
17947;SDS011;9099;47.958;11.366;2023-03-16T08:08:29;3.65;;;3.35;;
17947;SDS011;9099;47.958;11.366;2023-03-16T08:10:56;3.65;;;3.45;;
17947;SDS011;9099;47.958;11.366;2023-03-16T08:13:23;4.15;;;3.75;;
17947;SDS011;9099;47.958;11.366;2023-03-16T08:15:52;3.80;;;3.60;;
17947;SDS011;9099;47.958;11.366;2023-03-16T08:18:22;7.20;;;3.75;;
17947;SDS011;9099;47.958;11.366;2023-03-16T08:20:50;3.58;;;3.28;;
17947;SDS011;9099;47.958;11.366;2023-03-16T08:23:17;4.07;;;3.53;;
17947;SDS011;9099;47.958;11.366;2023-03-16T08:25:45;3.42;;;3.22;;
17947;SDS011;9099;47.958;11.366;2023-03-16T08:28:13;4.00;;;3.40;;
17947;SDS011;9099;47.958;11.366;2023-03-16T08:30:44;3.60;;;3.22;;
17947;SDS011;9099;47.958;11.366;2023-03-16T08:33:13;5.38;;;3.78;;
17947;SDS011;9099;47.958;11.366;2023-03-16T08:35:42;3.17;;;2.97;;
17947;SDS011;9099;47.958;11.366;2023-03-16T08:38:09;4.05;;;3.58;;
17947;SDS011;9099;47.958;11.366;2023-03-16T08:40:36;4.65;;;3.90;;
17947;SDS011;9099;47.958;11.366;2023-03-16T08:43:06;3.80;;;3.50;;
17947;SDS011;9099;47.958;11.366;2023-03-16T08:45:33;4.05;;;3.83;;
17947;SDS011;9099;47.958;11.366;2023-03-16T08:48:00;4.13;;;3.88;;
17947;SDS011;9099;47.958;11.366;2023-03-16T08:50:29;4.22;;;3.92;;
17947;SDS011;9099;47.958;11.366;2023-03-16T08:52:56;4.10;;;3.90;;
17947;SDS011;9099;47.958;11.366;2023-03-16T08:55:23;3.70;;;3.50;;
17947;SDS011;9099;47.958;11.366;2023-03-16T08:57:50;3.55;;;3.25;;
17947;SDS011;9099;47.958;11.366;2023-03-16T09:00:17;5.32;;;3.72;;
17947;SDS011;9099;47.958;11.366;2023-03-16T09:02:45;5.10;;;3.67;;
17947;SDS011;9099;47.958;11.366;2023-03-16T09:05:13;3.88;;;3.67;;
17947;SDS011;9099;47.958;11.366;2023-03-16T09:07:43;3.40;;;3.20;;
17947;SDS011;9099;47.958;11.366;2023-03-16T09:10:11;12.52;;;3.53;;
17947;SDS011;9099;47.958;11.366;2023-03-16T09:12:40;4.10;;;3.70;;
17947;SDS011;9099;47.958;11.366;2023-03-16T09:15:08;4.18;;;3.88;;
17947;SDS011;9099;47.958;11.366;2023-03-16T09:17:36;4.25;;;3.85;;
17947;SDS011;9099;47.958;11.366;2023-03-16T09:20:04;3.88;;;3.67;;
17947;SDS011;9099;47.958;11.366;2023-03-16T09:22:33;4.47;;;4.18;;
17947;SDS011;9099;47.958;11.366;2023-03-16T09:25:03;3.72;;;3.53;;
17947;SDS011;9099;47.958;11.366;2023-03-16T09:27:30;3.92;;;3.63;;
17947;SDS011;9099;47.958;11.366;2023-03-16T09:29:57;4.15;;;3.85;;
17947;SDS011;9099;47.958;11.366;2023-03-16T09:32:25;3.97;;;3.38;;
17947;SDS011;9099;47.958;11.366;2023-03-16T09:34:52;3.50;;;3.20;;
17947;SDS011;9099;47.958;11.366;2023-03-16T09:37:19;4.85;;;3.38;;
17947;SDS011;9099;47.958;11.366;2023-03-16T09:39:46;3.45;;;3.17;;
17947;SDS011;9099;47.958;11.366;2023-03-16T09:42:16;3.03;;;2.83;;
17947;SDS011;9099;47.958;11.366;2023-03-16T09:44:51;3.08;;;2.88;;
17947;SDS011;9099;47.958;11.366;2023-03-16T09:47:28;3.35;;;3.15;;
17947;SDS011;9099;47.958;11.366;2023-03-16T09:49:58;3.30;;;3.00;;
17947;SDS011;9099;47.958;11.366;2023-03-16T09:52:31;2.85;;;2.65;;
17947;SDS011;9099;47.958;11.366;2023-03-16T09:55:04;3.60;;;3.40;;
17947;SDS011;9099;47.958;11.366;2023-03-16T09:57:40;5.00;;;3.67;;
17947;SDS011;9099;47.958;11.366;2023-03-16T10:00:13;7.68;;;3.47;;
17947;SDS011;9099;47.958;11.366;2023-03-16T10:02:45;3.65;;;3.38;;
17947;SDS011;9099;47.958;11.366;2023-03-16T10:05:41;4.10;;;3.55;;
17947;SDS011;9099;47.958;11.366;2023-03-16T10:08:11;3.97;;;3.67;;
17947;SDS011;9099;47.958;11.366;2023-03-16T10:10:50;3.60;;;3.40;;
17947;SDS011;9099;47.958;11.366;2023-03-16T10:13:32;5.20;;;3.85;;
17947;SDS011;9099;47.958;11.366;2023-03-16T10:16:06;3.70;;;3.40;;
17947;SDS011;9099;47.958;11.366;2023-03-16T10:18:38;3.33;;;3.13;;
17947;SDS011;9099;47.958;11.366;2023-03-16T10:21:10;4.53;;;3.58;;
17947;SDS011;9099;47.958;11.366;2023-03-16T10:23:40;3.38;;;3.17;;
17947;SDS011;9099;47.958;11.366;2023-03-16T10:26:12;3.78;;;3.33;;
17947;SDS011;9099;47.958;11.366;2023-03-16T10:28:42;2.92;;;2.78;;
17947;SDS011;9099;47.958;11.366;2023-03-16T10:31:11;3.05;;;2.85;;
17947;SDS011;9099;47.958;11.366;2023-03-16T10:33:39;2.65;;;2.38;;
17947;SDS011;9099;47.958;11.366;2023-03-16T10:36:13;2.50;;;2.33;;
17947;SDS011;9099;47.958;11.366;2023-03-16T10:38:44;6.25;;;2.72;;
17947;SDS011;9099;47.958;11.366;2023-03-16T10:41:25;3.22;;;3.03;;
17947;SDS011;9099;47.958;11.366;2023-03-16T10:43:56;4.13;;;3.05;;
17947;SDS011;9099;47.958;11.366;2023-03-16T10:46:34;3.10;;;2.90;;
17947;SDS011;9099;47.958;11.366;2023-03-16T10:49:02;3.60;;;3.22;;
17947;SDS011;9099;47.958;11.366;2023-03-16T10:51:30;7.32;;;3.47;;
17947;SDS011;9099;47.958;11.366;2023-03-16T10:54:03;3.15;;;2.95;;
17947;SDS011;9099;47.958;11.366;2023-03-16T10:56:34;2.75;;;2.55;;
17947;SDS011;9099;47.958;11.366;2023-03-16T10:59:12;2.88;;;2.45;;
17947;SDS011;9099;47.958;11.366;2023-03-16T11:01:43;2.38;;;2.10;;
17947;SDS011;9099;47.958;11.366;2023-03-16T11:04:13;2.83;;;2.58;;
17947;SDS011;9099;47.958;11.366;2023-03-16T11:06:52;3.10;;;2.90;;
17947;SDS011;9099;47.958;11.366;2023-03-16T11:09:21;3.88;;;2.90;;
17947;SDS011;9099;47.958;11.366;2023-03-16T11:11:50;2.80;;;2.60;;
17947;SDS011;9099;47.958;11.366;2023-03-16T11:14:20;4.60;;;1.70;;
17947;SDS011;9099;47.958;11.366;2023-03-16T11:16:50;1.45;;;1.17;;
17947;SDS011;9099;47.958;11.366;2023-03-16T11:19:25;2.28;;;1.60;;
17947;SDS011;9099;47.958;11.366;2023-03-16T11:21:55;1.23;;;1.05;;
17947;SDS011;9099;47.958;11.366;2023-03-16T11:24:26;1.90;;;1.20;;
17947;SDS011;9099;47.958;11.366;2023-03-16T11:27:00;1.27;;;1.27;;
17947;SDS011;9099;47.958;11.366;2023-03-16T11:29:35;1.50;;;1.40;;
17947;SDS011;9099;47.958;11.366;2023-03-16T11:32:12;1.83;;;1.73;;
17947;SDS011;9099;47.958;11.366;2023-03-16T11:34:44;2.03;;;1.27;;
17947;SDS011;9099;47.958;11.366;2023-03-16T11:37:13;1.58;;;1.40;;
17947;SDS011;9099;47.958;11.366;2023-03-16T11:39:52;1.52;;;1.42;;
17947;SDS011;9099;47.958;11.366;2023-03-16T11:42:26;1.30;;;1.30;;
17947;SDS011;9099;47.958;11.366;2023-03-16T11:44:59;1.17;;;1.15;;
17947;SDS011;9099;47.958;11.366;2023-03-16T11:47:41;1.65;;;1.55;;
17947;SDS011;9099;47.958;11.366;2023-03-16T11:50:21;3.42;;;1.90;;
17947;SDS011;9099;47.958;11.366;2023-03-16T11:52:54;1.80;;;1.70;;
17947;SDS011;9099;47.958;11.366;2023-03-16T11:55:31;1.83;;;1.40;;
17947;SDS011;9099;47.958;11.366;2023-03-16T11:58:13;2.25;;;1.50;;
17947;SDS011;9099;47.958;11.366;2023-03-16T12:00:54;1.98;;;1.60;;
17947;SDS011;9099;47.958;11.366;2023-03-16T12:03:34;2.75;;;2.25;;
17947;SDS011;9099;47.958;11.366;2023-03-16T12:09:28;1.58;;;1.48;;
17947;SDS011;9099;47.958;11.366;2023-03-16T12:12:38;2.08;;;1.70;;
17947;SDS011;9099;47.958;11.366;2023-03-16T12:15:29;1.48;;;1.38;;
17947;SDS011;9099;47.958;11.366;2023-03-16T12:18:03;1.45;;;1.35;;
17947;SDS011;9099;47.958;11.366;2023-03-16T12:20:39;1.70;;;1.60;;
17947;SDS011;9099;47.958;11.366;2023-03-16T12:23:12;2.25;;;1.40;;
17947;SDS011;9099;47.958;11.366;2023-03-16T12:25:44;1.23;;;1.17;;
17947;SDS011;9099;47.958;11.366;2023-03-16T12:28:15;1.17;;;1.13;;
17947;SDS011;9099;47.958;11.366;2023-03-16T12:30:48;1.35;;;1.20;;
17947;SDS011;9099;47.958;11.366;2023-03-16T12:33:26;2.22;;;1.73;;
17947;SDS011;9099;47.958;11.366;2023-03-16T12:36:02;5.80;;;1.50;;
17947;SDS011;9099;47.958;11.366;2023-03-16T12:38:38;2.63;;;1.80;;
17947;SDS011;9099;47.958;11.366;2023-03-16T12:41:14;2.78;;;1.85;;
17947;SDS011;9099;47.958;11.366;2023-03-16T12:43:53;1.67;;;1.58;;
17947;SDS011;9099;47.958;11.366;2023-03-16T12:46:29;2.72;;;2.05;;
17947;SDS011;9099;47.958;11.366;2023-03-16T12:49:03;1.88;;;1.73;;
17947;SDS011;9099;47.958;11.366;2023-03-16T12:51:33;2.72;;;2.13;;
17947;SDS011;9099;47.958;11.366;2023-03-16T12:54:00;2.05;;;1.95;;
17947;SDS011;9099;47.958;11.366;2023-03-16T12:56:30;3.72;;;1.80;;
17947;SDS011;9099;47.958;11.366;2023-03-16T12:58:59;2.13;;;2.00;;
17947;SDS011;9099;47.958;11.366;2023-03-16T13:01:28;2.17;;;2.08;;
17947;SDS011;9099;47.958;11.366;2023-03-16T13:04:05;1.90;;;1.80;;
17947;SDS011;9099;47.958;11.366;2023-03-16T13:06:36;2.17;;;2.08;;
17947;SDS011;9099;47.958;11.366;2023-03-16T13:09:07;2.13;;;1.92;;
17947;SDS011;9099;47.958;11.366;2023-03-16T13:11:41;2.17;;;1.80;;
17947;SDS011;9099;47.958;11.366;2023-03-16T13:14:14;2.15;;;2.00;;
17947;SDS011;9099;47.958;11.366;2023-03-16T13:17:01;2.35;;;2.05;;
17947;SDS011;9099;47.958;11.366;2023-03-16T13:19:31;2.20;;;2.10;;
17947;SDS011;9099;47.958;11.366;2023-03-16T13:22:03;2.58;;;1.63;;
17947;SDS011;9099;47.958;11.366;2023-03-16T13:24:48;1.95;;;1.83;;
17947;SDS011;9099;47.958;11.366;2023-03-16T13:27:19;1.80;;;1.70;;
17947;SDS011;9099;47.958;11.366;2023-03-16T13:29:52;1.80;;;1.70;;
17947;SDS011;9099;47.958;11.366;2023-03-16T13:32:23;1.60;;;1.50;;
17947;SDS011;9099;47.958;11.366;2023-03-16T13:34:55;1.60;;;1.50;;
17947;SDS011;9099;47.958;11.366;2023-03-16T13:37:23;1.40;;;1.38;;
17947;SDS011;9099;47.958;11.366;2023-03-16T13:39:53;1.20;;;1.20;;
17947;SDS011;9099;47.958;11.366;2023-03-16T13:42:23;1.40;;;1.30;;
17947;SDS011;9099;47.958;11.366;2023-03-16T13:44:51;2.47;;;1.90;;
17947;SDS011;9099;47.958;11.366;2023-03-16T13:47:20;2.10;;;1.95;;
17947;SDS011;9099;47.958;11.366;2023-03-16T13:49:48;3.85;;;1.90;;
17947;SDS011;9099;47.958;11.366;2023-03-16T13:52:20;2.13;;;2.03;;
17947;SDS011;9099;47.958;11.366;2023-03-16T13:54:50;3.17;;;2.28;;
17947;SDS011;9099;47.958;11.366;2023-03-16T13:57:18;2.15;;;1.67;;
17947;SDS011;9099;47.958;11.366;2023-03-16T13:59:49;1.80;;;1.70;;
17947;SDS011;9099;47.958;11.366;2023-03-16T14:02:22;1.75;;;1.65;;
17947;SDS011;9099;47.958;11.366;2023-03-16T14:04:50;3.38;;;1.98;;
17947;SDS011;9099;47.958;11.366;2023-03-16T14:07:19;2.28;;;2.00;;
17947;SDS011;9099;47.958;11.366;2023-03-16T14:09:47;3.00;;;2.70;;
17947;SDS011;9099;47.958;11.366;2023-03-16T14:12:17;2.50;;;2.30;;
17947;SDS011;9099;47.958;11.366;2023-03-16T14:14:45;1.95;;;1.77;;
17947;SDS011;9099;47.958;11.366;2023-03-16T14:17:15;2.22;;;2.00;;
17947;SDS011;9099;47.958;11.366;2023-03-16T14:19:45;2.50;;;2.15;;
17947;SDS011;9099;47.958;11.366;2023-03-16T14:22:14;2.45;;;1.98;;
17947;SDS011;9099;47.958;11.366;2023-03-16T14:24:45;2.20;;;1.90;;
17947;SDS011;9099;47.958;11.366;2023-03-16T14:27:19;2.33;;;2.13;;
17947;SDS011;9099;47.958;11.366;2023-03-16T14:29:52;2.72;;;2.53;;
17947;SDS011;9099;47.958;11.366;2023-03-16T14:32:23;2.67;;;2.42;;
17947;SDS011;9099;47.958;11.366;2023-03-16T14:34:59;2.40;;;2.30;;
17947;SDS011;9099;47.958;11.366;2023-03-16T14:37:34;2.70;;;2.30;;
17947;SDS011;9099;47.958;11.366;2023-03-16T14:40:04;2.67;;;2.22;;
17947;SDS011;9099;47.958;11.366;2023-03-16T14:42:33;3.22;;;2.22;;
17947;SDS011;9099;47.958;11.366;2023-03-16T14:45:01;2.85;;;2.55;;
17947;SDS011;9099;47.958;11.366;2023-03-16T14:47:34;3.28;;;2.40;;
17947;SDS011;9099;47.958;11.366;2023-03-16T14:50:07;3.80;;;2.35;;
17947;SDS011;9099;47.958;11.366;2023-03-16T14:52:38;2.47;;;2.30;;
17947;SDS011;9099;47.958;11.366;2023-03-16T14:55:10;2.45;;;2.25;;
17947;SDS011;9099;47.958;11.366;2023-03-16T14:57:39;2.40;;;2.20;;
17947;SDS011;9099;47.958;11.366;2023-03-16T15:00:07;2.55;;;2.35;;
17947;SDS011;9099;47.958;11.366;2023-03-16T15:02:36;2.75;;;2.25;;
17947;SDS011;9099;47.958;11.366;2023-03-16T15:05:05;2.00;;;1.90;;